Latest Coastal Weather Observations for Low Isles

IDQ60701

Issued at 6:24 pm EST Monday 22 December 2014 (issued every 10 minutes, with the page automatically refreshed every 10 minutes)

About coastal observations | Map of coastal stations | Coastal observations for QLD | Marine services | Other Formats
Station Details ID: 031037 Name: LOW ISLES LIGHTHOUSE Lat: -16.38 Lon: 145.56 Height: 2.9 m
Data from the previous 72 hours. | See also: Recent months at Low Isles
Date/Time
EST
Temp

°C
Wind Pressure Rain
since 9am
mm
Weather Cloud Vis
km
Sea
Height
m
Swell
Dir
 
Speed
knots
Gust
knots
hPa Trend Height
m
Period
s
Dir
22/06:00pm 28.1 ESE 17 22 1010.1 - 2.4 - - - - - - -
22/05:30pm 28.0 SE 19 23 1010.0 - 2.4 - - - - - - -
22/05:00pm 28.0 SSE 19 23 1009.9 - 2.4 - - - - - - -
22/04:30pm 27.5 SSE 20 22 1009.7 - 2.4 - - - - - - -
22/04:00pm 27.9 SSE 22 24 1009.7 - 2.4 - - - - - - -
22/03:30pm 27.0 SSE 27 32 1009.9 - 2.4 - - - - - - -
22/03:00pm 26.9 SSE 28 31 1009.8 - 2.4 Squalls Mostly cloudy 6 - - - -
22/02:54pm 26.9 SE 16 31 1009.8 - 2.4 - - - - - - -
22/02:30pm 26.8 SE 18 21 1010.2 - 1.0 - - - - - - -
22/02:18pm 26.7 SSE 23 28 1010.3 - 0.2 - - - - - - -
22/02:07pm 29.9 ESE 15 26 1010.5 - 0.0 - - - - - - -
22/02:00pm 31.3 ESE 14 17 1010.5 - 0.0 - - - - - - -
22/01:30pm 30.5 E 12 15 1010.9 - 0.0 - - - - - - -
22/01:00pm 31.1 ESE 13 18 1011.0 - 0.0 - - - - - - -
22/12:30pm 31.5 SE 13 16 1011.3 - 0.0 - - - - - - -
22/12:00pm 31.7 ESE 13 17 1011.4 - 0.0 - - - - - - -
22/11:30am 31.5 ESE 13 17 1011.8 - 0.0 - - - - - - -
22/11:00am 30.2 ESE 12 16 1012.0 - 0.0 - - - - - - -
22/10:30am 29.9 ESE 12 15 1012.1 - 0.0 - - - - - - -
22/10:00am 30.7 E 11 15 1011.7 - 0.0 - - - - - - -
22/09:30am 31.0 E 11 16 1011.8 - 0.0 - - - - - - -
22/09:00am 29.8 E 11 16 1011.7 - 7.8 Distant precip. Mostly cloudy 15 - - - -
22/08:30am 27.4 SE 10 14 1011.5 - 7.8 - - - - - - -
22/08:00am 26.7 S 10 15 1011.4 - 7.8 - - - - - - -
22/07:30am 27.3 S 8 9 1011.0 - 7.8 - - - - - - -
22/07:00am 26.5 S 9 11 1011.1 - 7.8 - - - - - - -
22/06:30am 25.7 SSW 9 10 1010.7 - 7.8 - - - - - - -
22/06:00am 23.4 ESE 8 11 1010.4 - 7.8 - - - - - - -
22/05:30am 24.5 ESE 13 17 1010.3 - 4.0 - - - - - - -
22/05:00am 24.7 E 8 10 1009.7 - 2.2 - - - - - - -
22/04:30am 25.0 SSE 16 23 1009.7 - 1.8 - - - - - - -
22/04:00am 26.2 SSE 13 14 1009.6 - 0.0 - - - - - - -
22/03:30am 26.3 SE 9 11 1009.3 - 0.0 - - - - - - -
22/03:00am 26.2 ESE 19 23 1009.4 - 0.0 - - - - - - -
22/02:53am 26.1 ESE 19 22 1009.5 - 0.0 - - - - - - -
22/02:30am 26.3 SSE 21 25 1009.7 - 0.0 - - - - - - -
22/02:00am 26.0 SSE 21 24 1009.9 - 0.0 - - - - - - -
22/01:30am 26.2 SSE 24 29 1010.1 - 0.0 - - - - - - -
22/01:19am 26.9 SSE 23 25 1010.3 - 0.0 - - - - - - -
22/01:00am 27.9 ESE 14 17 1010.7 - 0.0 - - - - - - -
22/12:30am 28.0 SE 13 17 1011.0 - 0.0 - - - - - - -
22/12:00am 28.0 SE 13 16 1011.2 - 0.0 - - - - - - -
 
Date/Time
EST
Temp

°C
Wind Pressure Rain
since 9am
mm
Weather Cloud Vis
km
Sea
Height
m
Swell
Dir
 
Speed
knots
Gust
knots
hPa Trend Height
m
Period
s
Dir
21/11:30pm 28.3 SE 14 16 1011.6 - 0.0 - - - - - - -
21/11:00pm 28.2 ESE 12 15 1011.4 - 0.0 - - - - - - -
21/10:30pm 28.3 ESE 13 16 1011.5 - 0.0 - - - - - - -
21/10:00pm 28.3 SE 15 18 1011.6 - 0.0 - - - - - - -
21/09:30pm 28.3 SE 15 19 1011.3 - 0.0 - - - - - - -
21/09:00pm 28.4 ESE 15 20 1011.1 - 0.0 - - - - - - -
21/08:30pm 28.3 SE 17 22 1010.8 - 0.0 - - - - - - -
21/08:00pm 28.6 SE 16 20 1010.7 - 0.0 - - - - - - -
21/07:30pm 28.7 SE 13 15 1010.5 - 0.0 - - - - - - -
21/07:00pm 28.7 ESE 13 15 1010.3 - 0.0 - - - - - - -
21/06:30pm 29.1 E 13 16 1010.1 - 0.0 - - - - - - -
21/06:00pm 29.4 ESE 13 16 1009.8 - 0.0 - - - - - - -
21/05:30pm 30.3 ESE 11 14 1009.7 - 0.0 - - - - - - -
21/05:00pm 30.5 ESE 12 14 1009.5 - 0.0 - - - - - - -
21/04:30pm 31.1 ESE 11 13 1009.4 - 0.0 - - - - - - -
21/04:00pm 32.0 ESE 11 13 1009.6 - 0.0 - - - - - - -
21/03:30pm 32.8 E 10 14 1009.8 - 0.0 - - - - - - -
21/03:00pm 33.2 E 9 14 1010.0 - 0.0 Haze Mostly cloudy 20 - - - -
21/02:30pm 33.3 E 9 13 1010.3 - 0.0 - - - - - - -
21/02:00pm 33.1 ESE 8 11 1010.6 - 0.0 - - - - - - -
21/01:30pm 33.0 ESE 7 10 1010.9 - 0.0 - - - - - - -
21/01:00pm 33.6 ESE 7 11 1011.1 - 0.0 - - - - - - -
21/12:30pm 33.4 ENE 6 9 1011.4 - 0.0 - - - - - - -
21/12:00pm 33.9 E 7 9 1011.7 - 0.0 - - - - - - -
21/11:30am 33.2 ESE 8 11 1012.2 - 0.0 - - - - - - -
21/11:00am 33.0 ESE 9 11 1012.2 - 0.0 - - - - - - -
21/10:30am 31.7 SE 8 11 1012.4 - 0.0 - - - - - - -
21/10:00am 31.3 SE 8 10 1012.4 - 0.0 - - - - - - -
21/09:30am 31.8 ESE 9 12 1012.5 - 0.0 - - - - - - -
21/09:00am 30.3 ESE 9 12 1012.2 - 0.0 Haze Partly cloudy 30 - - - -
21/08:30am 30.4 SE 9 10 1012.2 - 0.0 - - - - - - -
21/08:00am 29.9 ESE 9 11 1011.8 - 0.0 - - - - - - -
21/07:30am 29.6 ESE 9 11 1011.6 - 0.0 - - - - - - -
21/07:00am 28.6 ESE 9 11 1011.5 - 0.0 - - - - - - -
21/06:30am 28.0 ESE 8 10 1011.1 - 0.0 - - - - - - -
21/06:00am 27.6 ESE 8 10 1010.5 - 0.0 - - - - - - -
21/05:30am 27.6 ESE 9 11 1010.2 - 0.0 - - - - - - -
21/05:00am 27.5 ESE 9 12 1009.9 - 0.0 - - - - - - -
21/04:30am 27.5 ESE 10 14 1009.7 - 0.0 - - - - - - -
21/04:00am 27.7 E 10 14 1009.5 - 0.0 - - - - - - -
21/03:30am 27.7 ESE 11 14 1009.6 - 0.0 - - - - - - -
21/03:00am 27.6 ESE 8 10 1009.7 - 0.0 - - - - - - -
21/02:30am 27.6 ESE 8 10 1009.8 - 0.0 - - - - - - -
21/02:00am 27.5 ESE 8 11 1010.0 - 0.0 - - - - - - -
21/01:30am 27.4 ESE 8 9 1010.3 - 0.0 - - - - - - -
21/01:00am 27.5 ESE 9 11 1010.4 - 0.0 - - - - - - -
21/12:30am 27.7 ESE 10 13 1010.6 - 0.0 - - - - - - -
21/12:00am 28.0 SE 8 10 1010.7 - 0.0 - - - - - - -
 
Date/Time
EST
Temp

°C
Wind Pressure Rain
since 9am
mm
Weather Cloud Vis
km
Sea
Height
m
Swell
Dir
 
Speed
knots
Gust
knots
hPa Trend Height
m
Period
s
Dir
20/11:30pm 27.8 ESE 7 9 1011.0 - 0.0 - - - - - - -
20/11:00pm 28.1 ESE 7 9 1010.8 - 0.0 - - - - - - -
20/10:30pm 28.2 ESE 7 9 1010.9 - 0.0 - - - - - - -
20/10:00pm 28.1 E 5 7 1010.8 - 0.0 - - - - - - -
20/09:30pm 28.3 ESE 7 10 1010.7 - 0.0 - - - - - - -
20/09:00pm 28.5 E 7 8 1010.5 - 0.0 - - - - - - -
20/08:30pm 28.5 E 6 8 1010.3 - 0.0 - - - - - - -
20/08:00pm 28.6 E 7 9 1010.2 - 0.0 - - - - - - -
20/07:30pm 28.6 ENE 7 9 1009.9 - 0.0 - - - - - - -
20/07:00pm 28.6 E 7 9 1009.8 - 0.0 - - - - - - -
20/06:30pm 29.0 E 8 10 1009.5 - 0.0 - - - - - - -
20/06:00pm 29.5 E 8 10 1009.3 - 0.0 - - - - - - -
20/05:30pm 30.5 E 9 11 1009.0 - 0.0 - - - - - - -
20/05:00pm 30.3 E 8 11 1008.7 - 0.0 - - - - - - -
20/04:30pm 31.8 E 7 11 1008.5 - 0.0 - - - - - - -
20/04:00pm 31.6 E 8 11 1008.4 - 0.0 - - - - - - -
20/03:30pm 32.5 E 7 11 1008.5 - 0.0 - - - - - - -
20/03:00pm 32.4 E 7 9 1008.7 - 0.0 Haze Mostly cloudy 25 - - - -
20/02:30pm 31.7 E 7 10 1009.0 - 0.0 - - - - - - -
20/02:00pm 32.3 ESE 8 12 1009.2 - 0.0 - - - - - - -
20/01:30pm 31.9 E 8 11 1009.6 - 0.0 - - - - - - -
20/01:00pm 33.5 E 7 10 1010.1 - 0.0 - - - - - - -
20/12:30pm 32.8 E 6 8 1010.5 - 0.0 - - - - - - -
20/12:00pm 31.5 E 6 8 1010.5 - 0.0 - - - - - - -
20/11:30am 31.6 NE 7 8 1011.0 - 0.0 - - - - - - -
20/11:00am 31.8 NE 7 9 1011.2 - 0.0 - - - - - - -
20/10:30am 31.6 ENE 6 8 1011.4 - 0.0 - - - - - - -
20/10:00am 30.7 E 5 8 1011.6 - 0.0 - - - - - - -
20/09:30am 29.3 SSE 7 8 1011.6 - 0.0 - - - - - - -
20/09:00am 30.4 SE 7 9 1011.5 - 0.0 Haze Partly cloudy 30 - - - -
20/08:30am 29.6 SE 7 9 1011.4 - 0.0 - - - - - - -
20/08:00am 28.9 SSE 8 10 1011.5 - 0.0 - - - - - - -
20/07:30am 28.4 SE 9 11 1011.2 - 0.0 - - - - - - -
20/07:00am 28.2 ESE 8 11 1011.1 - 0.0 - - - - - - -
20/06:30am 27.9 ESE 7 9 1010.7 - 0.0 - - - - - - -
20/06:00am 27.1 ESE 6 8 1010.3 - 0.0 - - - - - - -
20/05:30am 27.1 SE 6 7 1009.9 - 0.0 - - - - - - -
20/05:00am 27.1 ESE 6 8 1009.6 - 0.0 - - - - - - -
20/04:30am 27.5 ESE 7 9 1009.5 - 0.0 - - - - - - -
20/04:00am 27.8 SE 6 8 1009.6 - 0.0 - - - - - - -
20/03:30am 27.7 ESE 6 8 1009.6 - 0.0 - - - - - - -
20/03:00am 27.8 ESE 6 8 1009.9 - 0.0 - - - - - - -
20/02:30am 27.7 ESE 6 7 1009.9 - 0.0 - - - - - - -
20/02:00am 27.8 ESE 6 8 1010.2 - 0.0 - - - - - - -
20/01:30am 27.9 ESE 7 8 1010.2 - 0.0 - - - - - - -
20/01:00am 27.8 ESE 6 7 1010.6 - 0.0 - - - - - - -
20/12:30am 27.9 ESE 6 8 1011.0 - 0.0 - - - - - - -
20/12:00am 27.8 E 5 6 1011.3 - 0.0 - - - - - - -
 
Date/Time
EST
Temp

°C
Wind Pressure Rain
since 9am
mm
Weather Cloud Vis
km
Sea
Height
m
Swell
Dir
 
Speed
knots
Gust
knots
hPa Trend Height
m
Period
s
Dir
19/11:30pm 27.7 ENE 5 7 1011.7 - 0.0 - - - - - - -
19/11:00pm 27.8 ENE 6 7 1011.8 - 0.0 - - - - - - -
19/10:30pm 27.7 E 6 8 1011.6 - 0.0 - - - - - - -
19/10:00pm 27.6 ENE 6 8 1011.3 - 0.0 - - - - - - -
19/09:30pm 27.7 NE 5 6 1011.1 - 0.0 - - - - - - -
19/09:00pm 27.6 ENE 5 7 1010.7 - 0.0 - - - - - - -
19/08:30pm 27.2 NE 5 7 1010.5 - 0.0 - - - - - - -
19/08:00pm 27.3 NE 6 8 1010.2 - 0.0 - - - - - - -
19/07:30pm 27.5 NE 6 8 1009.8 - 0.0 - - - - - - -
19/07:00pm 28.1 NE 7 8 1009.4 - 0.0 - - - - - - -
19/06:30pm 29.3 NE 7 8 1009.2 - 0.0 - - - - - - -

Other Formats:

Comma delimited format used in spreadsheet applications
http://www.bom.gov.au/fwo/IDQ60701/IDQ60701.94285.axf

JavaScript Object Notation format (JSON) in row-major order
http://www.bom.gov.au/fwo/IDQ60701/IDQ60701.94285.json